createdAt,value
2023-05-09T00:05:21.629Z,56.43
2023-05-09T00:13:44.613Z,56.42
2023-05-09T00:22:09.287Z,56.32
2023-05-09T00:30:32.197Z,56.36
2023-05-09T00:38:55.460Z,56.24
2023-05-09T00:47:18.402Z,56.23
2023-05-09T00:55:41.379Z,56.13
2023-05-09T01:04:04.772Z,56.14
2023-05-09T01:12:41.428Z,56.16
2023-05-09T01:21:11.566Z,56.23
2023-05-09T01:29:44.785Z,56.07
2023-05-09T01:38:13.528Z,55.97
2023-05-09T01:46:38.296Z,56.17
2023-05-09T01:55:02.677Z,56.21
2023-05-09T02:03:26.144Z,56.14
2023-05-09T02:11:49.441Z,56.06
2023-05-09T02:20:13.559Z,55.89
2023-05-09T02:28:38.269Z,56.09
2023-05-09T02:37:01.635Z,56.01
2023-05-09T02:45:25.117Z,55.92
2023-05-09T02:53:48.021Z,56.11
2023-05-09T03:02:11.039Z,55.95
2023-05-09T03:10:34.732Z,56.16
2023-05-09T03:18:58.523Z,56.07
2023-05-09T03:27:21.517Z,56.02
2023-05-09T03:35:45.007Z,56.27
2023-05-09T03:44:08.409Z,56.55
2023-05-09T03:52:31.556Z,57.07
2023-05-09T04:00:55.300Z,57.44
2023-05-09T04:09:19.132Z,57.88
2023-05-09T04:17:44.021Z,58.09
2023-05-09T04:26:07.509Z,58.10
2023-05-09T04:34:31.892Z,58.21
2023-05-09T04:42:57.785Z,58.26
2023-05-09T04:51:23.145Z,58.64
2023-05-09T04:59:47.366Z,58.59
2023-05-09T05:08:11.793Z,58.82
2023-05-09T05:16:35.896Z,58.86
2023-05-09T05:24:58.941Z,59.05
2023-05-09T05:33:22.115Z,59.11
2023-05-09T05:41:45.227Z,59.09
2023-05-09T05:50:12.015Z,59.24
2023-05-09T05:58:35.818Z,59.16
2023-05-09T06:06:59.895Z,59.49
2023-05-09T06:15:22.996Z,59.50
2023-05-09T06:32:12.497Z,59.82
2023-05-09T06:40:35.444Z,59.85
2023-05-09T06:48:58.305Z,59.96
2023-05-09T06:57:21.230Z,59.84
2023-05-09T07:05:44.386Z,60.14
2023-05-09T07:14:07.310Z,60.17
2023-05-09T07:22:31.805Z,60.24
2023-05-09T07:30:56.434Z,60.02
2023-05-09T07:39:19.506Z,60.04
2023-05-09T07:47:42.352Z,60.01
2023-05-09T07:56:06.846Z,60.15
2023-05-09T08:04:30.056Z,60.22
2023-05-09T08:12:53.016Z,60.24
2023-05-09T08:21:15.923Z,60.09
2023-05-09T08:29:38.955Z,60.24
2023-05-09T08:38:01.992Z,60.13
2023-05-09T08:46:31.190Z,60.26
2023-05-09T08:54:54.462Z,59.95
2023-05-09T09:03:18.329Z,60.16
2023-05-09T09:11:42.851Z,60.05
2023-05-09T09:20:10.294Z,60.09
2023-05-09T09:28:34.207Z,60.16
2023-05-09T09:36:58.045Z,59.83
2023-05-09T09:45:21.229Z,59.84
2023-05-09T09:53:45.130Z,59.94
2023-05-09T10:02:08.649Z,59.86
2023-05-09T10:10:34.168Z,59.81
2023-05-09T10:18:57.285Z,59.84
2023-05-09T10:27:23.114Z,59.80
2023-05-09T10:35:47.438Z,59.56
2023-05-09T10:44:10.738Z,59.60
2023-05-09T10:52:34.230Z,59.45
2023-05-09T11:00:59.426Z,59.53
2023-05-09T11:09:33.492Z,59.42
2023-05-09T11:18:06.844Z,59.32
2023-05-09T11:26:30.746Z,59.35
2023-05-09T11:35:06.412Z,59.40
2023-05-09T11:43:29.795Z,59.09
2023-05-09T11:51:52.678Z,59.18
2023-05-09T12:00:17.431Z,59.18
2023-05-09T12:08:40.878Z,59.06
2023-05-09T12:17:03.867Z,58.98
2023-05-09T12:25:27.252Z,58.69
2023-05-09T12:33:50.313Z,58.83
2023-05-09T12:42:13.710Z,58.66
2023-05-09T12:50:36.633Z,58.63
2023-05-09T12:58:59.469Z,58.53
2023-05-09T13:07:22.330Z,58.43
2023-05-09T13:15:46.288Z,58.40
2023-05-09T13:24:09.286Z,58.36
2023-05-09T13:32:32.217Z,58.33
2023-05-09T13:40:55.120Z,58.27
2023-05-09T13:49:19.712Z,58.32
2023-05-09T13:57:43.508Z,58.08
2023-05-09T14:06:06.690Z,58.04
2023-05-09T14:14:29.504Z,57.85
2023-05-09T14:22:55.138Z,57.86
2023-05-09T14:31:18.726Z,57.72
2023-05-09T14:39:42.599Z,57.60
2023-05-09T14:48:05.912Z,57.47
2023-05-09T14:56:29.176Z,57.48
2023-05-09T15:04:51.989Z,57.36
2023-05-09T15:13:15.343Z,57.13
2023-05-09T15:21:38.506Z,57.03
2023-05-09T15:30:01.456Z,57.07
2023-05-09T15:38:24.454Z,57.01
2023-05-09T15:46:48.296Z,56.91
2023-05-09T15:55:13.056Z,56.87
2023-05-09T16:03:36.193Z,56.85
2023-05-09T16:11:59.478Z,56.55
2023-05-09T16:20:22.704Z,56.54
2023-05-09T16:28:45.650Z,56.58
2023-05-09T16:37:08.593Z,56.42
2023-05-09T16:45:31.671Z,56.36
2023-05-09T16:53:54.795Z,56.24
2023-05-09T17:02:17.671Z,56.07
2023-05-09T17:10:42.092Z,55.97
2023-05-09T17:19:05.295Z,55.97
2023-05-09T17:27:28.198Z,55.76
2023-05-09T17:35:52.885Z,55.78
2023-05-09T17:44:21.776Z,55.55
2023-05-09T17:52:46.238Z,55.54
2023-05-09T18:01:09.840Z,55.31
2023-05-09T18:09:32.726Z,55.27
2023-05-09T18:17:58.127Z,55.13
2023-05-09T18:26:23.674Z,54.90
2023-05-09T18:34:49.232Z,54.89
2023-05-09T18:43:12.558Z,54.84
2023-05-09T18:51:35.973Z,54.45
2023-05-09T18:59:59.051Z,54.36
2023-05-09T19:08:22.341Z,54.28
2023-05-09T19:16:45.255Z,54.35
2023-05-09T19:25:09.212Z,54.07
2023-05-09T19:33:33.578Z,54.10
2023-05-09T19:41:57.744Z,53.93
2023-05-09T19:50:21.915Z,53.92
2023-05-09T19:58:49.522Z,53.74
2023-05-09T20:07:12.745Z,53.61
2023-05-09T20:15:35.740Z,53.55
2023-05-09T20:23:59.372Z,53.71
2023-05-09T20:32:22.583Z,53.64
2023-05-09T20:40:45.608Z,53.56
2023-05-09T20:49:09.080Z,53.53
2023-05-09T20:57:32.099Z,53.47
2023-05-09T21:05:55.281Z,53.40
2023-05-09T21:14:18.171Z,53.42
2023-05-09T21:22:40.986Z,53.25
2023-05-09T21:31:03.988Z,53.28
2023-05-09T21:39:26.965Z,53.23
2023-05-09T21:47:50.015Z,53.25
2023-05-09T21:56:12.978Z,53.26
2023-05-09T22:04:35.918Z,53.32
2023-05-09T22:12:58.986Z,53.21
2023-05-09T22:21:21.873Z,53.15
2023-05-09T22:29:45.998Z,53.13
2023-05-09T22:38:08.886Z,53.17
2023-05-09T22:46:31.924Z,53.23
2023-05-09T22:54:55.205Z,53.22
2023-05-09T23:03:18.081Z,53.09
2023-05-09T23:11:41.288Z,53.08
2023-05-09T23:20:05.380Z,53.03
2023-05-09T23:28:28.229Z,52.96
2023-05-09T23:36:51.797Z,52.91
2023-05-09T23:45:15.003Z,52.94
2023-05-09T23:53:37.947Z,52.71
